Tiempo atmosférico en la estación meteorológica de Huercal Overa, Almería (295 m.)



Fecha
DESCASC
Temp. máxima en grados centígrados (hora)
DESCASC
Temp. mínima en grados centígrados (hora)
DESCASC
Temp. media en grados centígrados
DESCASC
Racha de viento máxima en m/sg (hora)
DESCASC
Velocidad máxima media en intervalos de 10 minutos(hora)
DESCASC
Precipitaciones diarias en mm
DESCASC
Precipitaciones de 00:00 a 06:00 en mm
DESCASC
Precipitaciones de 06:00 a 12:00 en mm
DESCASC
Precipitaciones de 12:00 a 18:00 en mm
DESCASC
Precipitaciones de 18:00 a 24:00 en mm
DESCASC

Gráficas

Temp. máximas Temp. mínimas Temp. medias Precipitaciones Rachas de viento máximas Velocidades máximas media en intervalos de 10 minutos

Datos horarios

Fecha y hora oficial Temperatura (ºC) Velocidad del viento (km/h) Dirección del viento Racha (km/h) Dirección de racha Precipitación (mm) Presión (hPa) Tendencia (hPa) Humedad (%)
2020-02-20 23:00:00 7.9 0 Calma 3 Nordeste 0 991.4 1.4 81
2020-02-20 22:00:00 8.3 0 Calma 4 Noroeste 0 991 1.6 81
2020-02-20 21:00:00 9.3 0 Calma 4 Este 0 990.5 1.6 78
2020-02-20 20:00:00 10.9 2 Nordeste 9 Sur 0 990 1.6 74
2020-02-20 19:00:00 11.4 6 Sur 13 Sudoeste 0 989.4 1.2 69
2020-02-20 18:00:00 13 8 Sur 21 Sudoeste 0 988.9 0.4 60
2020-02-20 17:00:00 13.9 13 Sudoeste 23 Sudoeste 0 988.4 -0.7 53
2020-02-20 16:00:00 14.8 11 Sudoeste 19 Sudoeste 0 988.2 -1.6 49
2020-02-20 15:00:00 14.4 9 Sudoeste 19 Sudoeste 0 988.5 -1.7 49
2020-02-20 14:00:00 14.8 10 Sur 21 Sudoeste 0 989.1 -1.2 46
2020-02-20 13:00:00 15 6 Sur 17 Sudoeste 0 989.8 -0.9 47
2020-02-20 12:00:00 13.7 3 Sudoeste 11 Sudoeste 0 990.2 -0.6 46
2020-02-20 11:00:00 14.9 0 Calma 4 Nordeste 0 990.3 0.3 46
2020-02-20 10:00:00 11.6 0 Calma -- -- 0 990.7 0.4 61
2020-02-20 09:00:00 6.5 0 Calma 5 Norte 0 990.8 0.6 84
2020-02-20 08:00:00 4 0 Calma 6 Noroeste 0 990 -0.6 84
2020-02-20 07:00:00 4.5 3 Nordeste 5 Nordeste 0 990.3 -1 85
2020-02-20 06:00:00 5.1 0 Calma 5 Noroeste 0 990.2 -1.8 84
2020-02-20 05:00:00 5.4 0 Calma 6 Noroeste 0 990.6 -1.8 84
2020-02-20 04:00:00 6 2 Noroeste 8 Norte 0 991.3 -1.8 84
2020-02-20 03:00:00 6.4 0 Calma 6 Nordeste 0 992 -1.7 83
2020-02-20 02:00:00 7.6 0 Calma 6 Este 0 992.4 -1.9 83
2020-02-20 01:00:00 8.4 0 Calma 8 Este 0 993.1 -1.3 82
2020-02-20 00:00:00 9.5 3 Oeste 6 Norte 0 993.7 -0.6 80
2020-02-19 23:00:00 11 0 Calma 5 Noroeste 0 994.3 -0.3 79
2020-02-19 22:00:00 10.8 2 Oeste 7 Sudeste 0 994.4 -0.2 79
2020-02-19 21:00:00 11.1 2 Este 8 Este 0 994.3 0 77
2020-02-19 20:00:00 11.4 0 Calma 8 Sudeste 0 994.6 0.2 72
2020-02-19 19:00:00 12.1 4 Sudeste 11 Este 0 994.6 0.1 63
2020-02-19 18:00:00 13.2 5 Este 18 Este 0 994.3 -0.7 54
2020-02-19 17:00:00 13.8 6 Este 18 Este 0 994.4 -1.1 53
2020-02-19 16:00:00 13.7 9 Sudeste 17 Sudeste 0 994.5 -1.6 54
2020-02-19 15:00:00 14 6 Sudeste 14 Sudeste 0 995 -1.8 58
2020-02-19 14:00:00 12.8 6 Sur 9 Sur 0 995.5 -1.2 71
2020-02-19 13:00:00 13.2 3 Sudeste 8 Este 0 996.1 -0.4 67
2020-02-19 12:00:00 14 0 Calma 9 Sudeste 0 996.8 0.6 65
2020-02-19 11:00:00 11.9 5 Sudeste 12 Este 0 996.7 1.3 75
2020-02-19 10:00:00 11.6 4 Este 13 Este 0 996.5 1.2 79
2020-02-19 09:00:00 11.1 6 Este 14 Este 0 996.2 1.2 81
2020-02-19 08:00:00 11 5 Nordeste 15 Este 0 995.4 0.7 82
2020-02-19 07:00:00 11 6 Este 13 Este 0 995.3 0.4 82
2020-02-19 06:00:00 11.1 5 Este 14 Este 0 995 0 82
2020-02-19 05:00:00 11.1 3 Este 10 Este 0 994.7 -0.4 83
2020-02-19 04:00:00 11.2 5 Este 12 Este 0 994.9 -0.3 83
2020-02-19 03:00:00 11.3 3 Este 13 Este 0 995 -0.2 83
2020-02-19 02:00:00 11.5 3 Este 13 Nordeste 0 995.1 0 83
2020-02-19 01:00:00 11.6 2 Este 10 Nordeste 0 995.2 0.3 83
2020-02-19 00:00:00 11.8 3 Este 9 Este 0 995.2 0.6 83
2020-02-18 23:00:00 11.8 2 Este 8 Este 0 995.1 0.8 81
2020-02-18 22:00:00 12.1 2 Este 16 Este 0 994.9 0.6 80
2020-02-18 21:00:00 12.3 5 Este 18 Este 0 994.6 0.6 80
2020-02-18 20:00:00 12.4 6 Este 17 Este 0 994.3 0.5 80
2020-02-18 19:00:00 12.9 3 Este 12 Este 0 994.3 0.4 76
2020-02-18 18:00:00 13.5 4 Este 15 Nordeste 0 994 -0.1 72
2020-02-18 17:00:00 13.7 5 Este 18 Nordeste 0 993.8 -1 72
2020-02-18 16:00:00 14.2 4 Este 13 Nordeste 0 993.9 -1.9 70
2020-02-18 15:00:00 13.2 4 Nordeste 13 Nordeste 0 994.1 -1.8 78
2020-02-18 14:00:00 12.4 5 Nordeste 10 Nordeste 0.3 994.8 -1.4 83
2020-02-18 13:00:00 12.7 5 Sudeste 14 Sudeste 0 995.8 -0.1 78
2020-02-18 12:00:00 12.6 3 Nordeste 13 Este 0 995.9 0.6 82
2020-02-18 11:00:00 12.3 4 Este 10 Sudeste 0 996.2 1.5 81
2020-02-18 10:00:00 12 4 Este 16 Nordeste 0 995.9 2 82
2020-02-18 09:00:00 11.8 6 Nordeste 21 Nordeste 0 995.3 2.2 80
2020-02-18 08:00:00 11.8 8 Nordeste 27 Nordeste 0 994.7 2.5 77
2020-02-18 07:00:00 12 9 Este 27 Sudeste 0 993.9 1.8 78
2020-02-18 06:00:00 11.1 8 Este 29 Este 0 993.1 1.1 78
2020-02-18 05:00:00 10.1 0 Calma 9 Noroeste 0 992.2 0.3 75
2020-02-18 04:00:00 10.6 2 Este 9 Este 0 992.1 0 74
2020-02-18 03:00:00 10.3 4 Este 9 Este 0 992 -0.2 71
2020-02-18 02:00:00 11 4 Oeste 9 Noroeste 0 991.9 -0.1 68
2020-02-18 01:00:00 11.3 4 Oeste 5 Oeste 0 992.1 0.6 71
2020-02-18 00:00:00 11.7 2 Este 9 Noroeste 0 992.2 1.2 70
2020-02-17 23:00:00 11.9 2 Norte 6 Nordeste 0 992 1.4 74
2020-02-17 22:00:00 12.6 0 Calma 6 Nordeste 0 991.5 1.7 72
2020-02-17 21:00:00 13.3 3 Este 9 Oeste 0 991 2 70
2020-02-17 20:00:00 14.5 3 Noroeste 7 Este 0 990.6 1.8 64
2020-02-17 19:00:00 16.2 2 Este 7 Sudoeste 0 989.8 1.4 52
2020-02-17 18:00:00 18 5 Sudoeste 16 Sudoeste 0 989 0.1 40
2020-02-17 17:00:00 18.6 11 Sudoeste 18 Sudoeste 0 988.8 -0.5 42
2020-02-17 16:00:00 19.3 10 Sudoeste 17 Sur 0 988.4 -1.9 37
2020-02-17 15:00:00 19.1 9 Sur 19 Sudoeste 0 988.9 -2.2 36
2020-02-17 14:00:00 20 8 Sur 15 Sudoeste 0 989.3 -1.9 34
2020-02-17 13:00:00 20.4 4 Sudoeste 10 Sudoeste 0 990.3 -1 31
2020-02-17 12:00:00 20.1 0 Calma 6 Este 0 991.1 -0.2 31
2020-02-17 11:00:00 18.5 0 Calma 4 Sudeste 0 991.2 0.5 37
2020-02-17 10:00:00 14.6 0 Calma 4 Este 0 991.3 0.9 75
2020-02-17 09:00:00 8.7 0 Calma 7 Noroeste 0 991.3 0.9 84
2020-02-17 08:00:00 6 0 Calma 3 Sudoeste 0 990.7 -0.1 84
2020-02-17 07:00:00 6.9 0 Calma 5 Nordeste 0.1 990.4 -0.4 84
2020-02-17 06:00:00 7.3 0 Calma 4 Nordeste 0 990.4 -0.6 84
2020-02-17 05:00:00 8.1 2 Norte 7 Oeste 0 990.8 -0.7 84
2020-02-17 04:00:00 8.6 0 Calma 6 Sudoeste 0 990.8 -0.9 84
2020-02-17 03:00:00 9 0 Calma 7 Oeste 0 991 -0.7 84
2020-02-17 02:00:00 9.9 4 Oeste 7 Oeste 0 991.5 -0.2 84
2020-02-17 01:00:00 10.3 4 Sudoeste 7 Sur 0 991.7 -0.1 84
2020-02-17 00:00:00 10.7 2 Sudoeste 7 Sudoeste 0 991.7 -0.2 83
2020-02-16 23:00:00 11.1 0 Calma 9 Norte 0 991.7 0 83
2020-02-16 22:00:00 11.3 0 Calma 7 Este 0 991.8 0.6 82
2020-02-16 21:00:00 11.6 0 Calma 7 Noroeste 0 991.9 0.9 82
2020-02-16 20:00:00 11.3 2 Sudoeste 8 Sudoeste 0 991.7 0.6 82
2020-02-16 19:00:00 11.3 5 Sudoeste 12 Sur 0 991.2 0.3 81
2020-02-16 18:00:00 13.1 6 Sudoeste 17 Sudoeste 0 991 0.4 75
2020-02-16 17:00:00 14 10 Sudoeste 19 Sudoeste 0 991.1 -0.2 71
2020-02-16 16:00:00 15.3 10 Sudoeste 19 Sudoeste 0 990.9 -1.4 61
2020-02-16 15:00:00 16.7 10 Sudoeste 17 Sudoeste 0 990.6 -2.4 50
2020-02-16 14:00:00 16.9 7 Sudoeste 14 Sudoeste 0 991.3 -2.1 46
2020-02-16 13:00:00 18.5 0 Calma 8 Norte 0 992.3 -0.8 43
2020-02-16 12:00:00 13.7 4 Este 9 Norte 0 993 0.2 69
2020-02-16 11:00:00 10 4 Este 9 Norte 0 993.4 1.3 84
2020-02-16 10:00:00 8.8 0 Calma 6 Nordeste 0 993.1 1.4 84
2020-02-16 09:00:00 7.2 0 Calma 5 Nordeste 0 992.8 1.1 84
2020-02-16 08:00:00 6.5 0 Calma 6 Nordeste 0 992.1 0.3 84
2020-02-16 07:00:00 6.1 0 Calma 8 Este 0 991.7 -0.4 84
2020-02-16 06:00:00 6.5 0 Calma 3 Norte 0 991.7 -0.7 84
2020-02-16 05:00:00 6.9 0 Calma 3 Norte 0 991.8 -0.8 84
2020-02-16 04:00:00 7.3 0 Calma 6 Norte 0 992.1 -0.6 84
2020-02-16 03:00:00 7.7 0 Calma 6 Noroeste 0 992.4 -0.5 84
2020-02-16 02:00:00 8.2 0 Calma 6 Oeste 0 992.6 -0.1 84
2020-02-16 01:00:00 9.2 0 Calma 8 Noroeste 0 992.7 0 84
2020-02-16 00:00:00 9.2 2 Noroeste 9 Este 0 992.9 0.3 84
2020-02-15 23:00:00 10 0 Calma 5 Sudeste 0 992.7 0.5 84
2020-02-15 22:00:00 10.1 3 Sur 6 Sur 0 992.7 1.4 84
2020-02-15 21:00:00 10.8 0 Calma 10 Oeste 0 992.6 1.6 84
2020-02-15 20:00:00 11.4 5 Sudoeste 10 Sudoeste 0 992.2 1.6 83
2020-02-15 19:00:00 12.1 7 Sudoeste 16 Sur 0 991.3 1 81
2020-02-15 18:00:00 13.8 10 Sudoeste 19 Sudoeste 0 991 0.6 74
2020-02-15 17:00:00 15.3 11 Sudoeste 22 Sudoeste 0 990.6 0.2 59
2020-02-15 16:00:00 16.4 13 Sudoeste 24 Sudoeste 0 990.3 -1.1 57
2020-02-15 15:00:00 16.9 12 Sur 23 Sudoeste 0 990.4 -1.3 51
2020-02-15 14:00:00 17.3 11 Sur 22 Sudoeste 0 990.4 -1.1 44
2020-02-15 13:00:00 17.5 8 Sur 19 Oeste 0 991.4 -0.2 41
2020-02-15 12:00:00 17.2 5 Sur 13 Sudoeste 0 991.7 0.5 42
2020-02-15 11:00:00 16 2 Sur 4 Sur 0 991.5 1.3 47
2020-02-15 10:00:00 11.6 3 Este 5 Este 0 991.6 1.8 64
2020-02-15 09:00:00 8.7 0 Calma 5 Norte 0 991.2 1.4 80
2020-02-15 08:00:00 6.1 2 Este 6 Nordeste 0 990.2 0.8 83
2020-02-15 07:00:00 7.3 0 Calma 4 Este 0 989.8 0.2 83
2020-02-15 06:00:00 6.7 0 Calma 4 Sudeste 0 989.8 -0.1 83
2020-02-15 05:00:00 7.5 0 Calma 3 Este 0 989.4 -0.8 83
2020-02-15 04:00:00 7.5 0 Calma 4 Este 0 989.6 -0.5 83
2020-02-15 03:00:00 7.8 2 Este 5 Este 0 989.9 -0.2 81
2020-02-15 02:00:00 8.1 0 Calma 3 Este 0 990.2 -0.1 80
2020-02-15 01:00:00 8.8 0 Calma 4 Este 0 990.1 -0.1 79
2020-02-15 00:00:00 9.3 0 Calma 3 Este 0 990.1 0.2 78
2020-02-14 23:00:00 10.3 0 Calma 4 Norte 0 990.3 0.5 75
2020-02-14 22:00:00 10.6 3 Noroeste 5 Noroeste 0 990.2 1 73
2020-02-14 21:00:00 11.1 2 Noroeste 9 Oeste 0 989.9 1.8 70
2020-02-14 20:00:00 13.1 2 Noroeste 6 Oeste 0 989.8 1.9 63
2020-02-14 19:00:00 14.1 5 Sudoeste 17 Sudoeste 0 989.2 1.3 60
2020-02-14 18:00:00 16.2 10 Sudoeste 20 Sudoeste 0 988.1 -0.1 46
2020-02-14 17:00:00 17.8 11 Sudoeste 21 Sudoeste 0 987.9 -0.9 39
2020-02-14 16:00:00 18.1 13 Sudoeste 23 Sudoeste 0 987.9 -1.8 38
2020-02-14 15:00:00 18.5 12 Sudoeste 23 Sudoeste 0 988.2 -1.9 35
2020-02-14 14:00:00 20 7 Sudoeste 15 Sudoeste 0 988.8 -1.6 30
2020-02-14 13:00:00 20.3 4 Sudeste 10 Sudoeste 0 989.7 -0.8 29
2020-02-14 12:00:00 19.5 3 Sudoeste 9 Sudoeste 0 990.1 -0.5 34
2020-02-14 11:00:00 16.3 2 Sur 5 Sudoeste 0 990.4 0.6 47
2020-02-14 10:00:00 13.5 0 Calma -- -- 0 990.5 1.1 56
2020-02-14 09:00:00 9.7 0 Calma -- -- 0 990.6 1.4 77
2020-02-14 08:00:00 7 0 Calma -- -- 0 989.8 0.8 83
2020-02-14 07:00:00 7.1 0 Calma 4 Oeste 0 989.4 0.4 83
2020-02-14 06:00:00 7.2 0 Calma 8 Nordeste 0 989.2 0 83
2020-02-14 05:00:00 8 0 Calma 3 Sudeste 0 989 -0.6 82
2020-02-14 04:00:00 8.4 0 Calma 5 Noroeste 0 989 -0.4 82
2020-02-14 03:00:00 8.9 0 Calma 5 Sudeste 0 989.2 -0.2 82
2020-02-14 02:00:00 9.1 0 Calma 5 Nordeste 0 989.6 -0.2 83
2020-02-14 01:00:00 9.8 0 Calma 4 Noroeste 0 989.4 -0.4 83
2020-02-14 00:00:00 10.4 0 Calma 6 Sudoeste 0 989.4 -0.1 82
2020-02-13 23:00:00 10.8 3 Sur 6 Sudoeste 0 989.8 0.5 82
2020-02-13 22:00:00 11.5 0 Calma 8 Sudoeste 0 989.8 1.3 81
2020-02-13 21:00:00 12 4 Noroeste 6 Noroeste 0 989.5 1.8 81
2020-02-13 20:00:00 13 2 Noroeste 7 Sudoeste 0 989.3 2 81
2020-02-13 19:00:00 13.6 3 Sudoeste 9 Sudoeste 0 988.5 1.6 79
2020-02-13 18:00:00 14.9 6 Sudoeste 14 Sudoeste 0 987.7 0.8 73
2020-02-13 17:00:00 15.8 10 Sur 19 Sudoeste 0 987.3 -0.3 70
2020-02-13 16:00:00 16.6 10 Sur 18 Sur 0 986.9 -1.4 63
2020-02-13 15:00:00 17.4 9 Sur 17 Sur 0 986.9 -2.3 54
2020-02-13 14:00:00 18.5 6 Sudoeste 13 Sudoeste 0 987.6 -1.5 47
2020-02-13 13:00:00 18 3 Sudeste 8 Sudeste 0 988.3 -0.9 45
2020-02-13 12:00:00 16.1 0 Calma 6 Sur 0 989.2 0.5 53
2020-02-13 11:00:00 13.6 0 Calma 5 Sudeste 0 989.1 1.2 67
2020-02-13 10:00:00 9.9 0 Calma 5 Sudoeste 0 989.2 1.6 83
2020-02-13 09:00:00 9 0 Calma 4 Nordeste 0 988.7 1.2 84
2020-02-13 08:00:00 8.2 3 Noroeste 6 Noroeste 0 987.9 0.7 84
2020-02-13 07:00:00 8.3 0 Calma 6 Este 0 987.6 0.5 84
2020-02-13 06:00:00 9.1 0 Calma 3 Oeste 0 987.5 -0.4 84
2020-02-13 05:00:00 9.1 0 Calma 4 Sur 0 987.2 -1 84
2020-02-13 04:00:00 9.5 0 Calma 5 Nordeste 0 987.1 -1.3 84
2020-02-13 03:00:00 9.7 0 Calma 3 Noroeste 0 987.9 -0.6 84
2020-02-13 02:00:00 10.1 0 Calma 5 Nordeste 0 988.2 -0.3 84
2020-02-13 01:00:00 10.6 2 Este 5 Noroeste 0 988.4 -0.3 84
2020-02-13 00:00:00 11 0 Calma 8 Noroeste 0 988.5 0.2 84
2020-02-12 23:00:00 10.7 2 Oeste 8 Sudeste 0 988.5 0.4 83
2020-02-12 22:00:00 11.8 0 Calma 4 Noroeste 0 988.7 1.1 83
2020-02-12 21:00:00 12.1 0 Calma 8 Sudoeste 0 988.3 1.1 83
2020-02-12 20:00:00 12.4 3 Sudoeste 12 Sudoeste 0 988.1 1.1 82
2020-02-12 19:00:00 13.1 6 Sur 11 Sudoeste 0 987.6 0.4 80
2020-02-12 18:00:00 13.9 9 Sudoeste 17 Sudoeste 0 987.2 -0.1 77
2020-02-12 17:00:00 15.3 10 Sudoeste 20 Sudoeste 0 987 -0.7 72
2020-02-12 16:00:00 15.1 10 Sudoeste 21 Sudoeste 0 987.2 -0.9 69
2020-02-12 15:00:00 15.7 12 Sur 26 Sudoeste 0 987.3 -1.5 63
2020-02-12 14:00:00 17.4 11 Sudoeste 19 Sudoeste 0 987.7 -0.9 53
2020-02-12 13:00:00 19.9 5 Este 15 Este 0 988.1 -0.9 43
2020-02-12 12:00:00 18.9 0 Calma 7 Este 0 988.8 0 41
2020-02-12 11:00:00 18.1 0 Calma 6 Sudeste 0 988.6 0.3 46
2020-02-12 10:00:00 15.4 0 Calma 6 Norte 0 989 0.9 56
2020-02-12 09:00:00 10.8 4 Noroeste 11 Nordeste 0 988.8 1.1 72
2020-02-12 08:00:00 8.4 3 Este 7 Este 0 988.3 1 80
2020-02-12 07:00:00 8.7 0 Calma 6 Noroeste 0 988.1 0.7 78
2020-02-12 06:00:00 9.3 3 Este 8 Norte 0 987.7 0.1 75
2020-02-12 05:00:00 8.8 4 Noroeste 8 Nordeste 0 987.3 -0.5 78
2020-02-12 04:00:00 9.4 4 Este 8 Nordeste 0 987.4 -0.7 75
2020-02-12 03:00:00 11 0 Calma 4 Sudeste 0 987.6 -0.8 69
2020-02-12 02:00:00 11.8 0 Calma 5 Sudoeste 0 987.8 -0.6 64
2020-02-12 01:00:00 12.5 2 Noroeste 6 Noroeste 0 988.1 0 63
2020-02-12 00:00:00 14.7 2 Sudoeste 8 Sudoeste 0 988.4 0.6 50
2020-02-11 23:00:00 14.8 4 Oeste 6 Oeste 0 988.4 0.8 52
2020-02-11 22:00:00 13.8 3 Este 6 Noroeste 0 988.1 1.3 64
2020-02-11 21:00:00 15.2 0 Calma 6 Norte 0 987.8 1.6 54
2020-02-11 20:00:00 15.9 4 Noroeste 7 Nordeste 0 987.6 1.6 47
2020-02-11 19:00:00 18.2 3 Nordeste 10 Sudoeste 0 986.8 0.9 37
2020-02-11 18:00:00 20.1 6 Sudoeste 12 Sudoeste 0 986.2 -0.3 32
2020-02-11 17:00:00 21.3 8 Sur 17 Sudoeste 0 986 -2.2 31
2020-02-11 16:00:00 22.7 6 Sur 14 Sur 0 985.9 -3.5 27
2020-02-11 15:00:00 24.1 4 Sudoeste 9 Sudoeste 0 986.5 -3.7 21
2020-02-11 14:00:00 23.9 0 Calma 8 Este 0 988.2 -2.2 22
2020-02-11 13:00:00 24.3 0 Calma 6 Este 0 989.4 -1.3 26
2020-02-11 12:00:00 20.6 3 Sudeste 11 Sudeste 0 990.2 -0.7 34
2020-02-11 11:00:00 18.2 2 Este 5 Este 0 990.4 -0.1 39
2020-02-11 10:00:00 13.3 2 Sur 5 Oeste 0 990.7 0.1 55
2020-02-11 09:00:00 10.3 2 Nordeste 9 Nordeste 0 990.9 0.1 70
2020-02-11 08:00:00 7.6 3 Este 6 Este 0 990.5 -0.5 79
2020-02-11 07:00:00 8.8 4 Noroeste 7 Noroeste 0 990.6 -0.7 75
2020-02-11 06:00:00 7.3 2 Este 9 Nordeste 0 990.8 -1.5 81
2020-02-11 05:00:00 7.9 3 Este 6 Nordeste 0 991 -1.8 80
2020-02-11 04:00:00 8.3 0 Calma 7 Este 0 991.3 -2 81
2020-02-11 03:00:00 8.8 0 Calma 5 Norte 0 992.3 -1.4 81
2020-02-11 02:00:00 9.3 0 Calma 9 Nordeste 0 992.8 -1.1 81
2020-02-11 01:00:00 9.9 2 Este 8 Noroeste 0 993.3 -0.4 79
2020-02-11 00:00:00 10.3 0 Calma 8 Nordeste 0 993.7 -0.1 79
2020-02-10 23:00:00 10.8 3 Este 5 Este 0 993.9 0.1 78
2020-02-10 22:00:00 12.3 2 Nordeste 8 Nordeste 0 993.7 0.2 75
2020-02-10 21:00:00 13.6 2 Noroeste 5 Noroeste 0 993.8 0.5 68
2020-02-10 20:00:00 14.2 0 Calma 9 Nordeste 0 993.8 0.5 63
2020-02-10 19:00:00 15.5 5 Este 11 Este 0 993.5 0.2 54
2020-02-10 18:00:00 19.2 4 Sudoeste 16 Sudoeste 0 993.3 -0.6 37
2020-02-10 17:00:00 18.8 9 Sudoeste 17 Sudoeste 0 993.3 -1.7 37
2020-02-10 16:00:00 19.4 9 Sudoeste 19 Sur 0 993.3 -3.1 36
2020-02-10 15:00:00 19.3 12 Sudoeste 21 Sudoeste 0 993.9 -3.1 34
2020-02-10 14:00:00 18.1 12 Sur 20 Sudoeste 0 995 -2.3 35
2020-02-10 13:00:00 19.5 7 Sur 15 Sudoeste 0 996.4 -1.3 30
2020-02-10 12:00:00 18.1 3 Sur 6 Sudoeste 0 997 -0.2 36
2020-02-10 11:00:00 16.2 2 Sudeste 7 Este 0 997.3 0.9 41
2020-02-10 10:00:00 10.7 2 Sur 8 Sudeste 0 997.7 1.6 65
2020-02-10 09:00:00 8.3 0 Calma 4 Este 0 997.2 1.3 78
2020-02-10 08:00:00 5.7 0 Calma 4 Nordeste 0 996.4 0.5 84
2020-02-10 07:00:00 5.8 2 Nordeste 7 Norte 0 996.1 -0.2 84
2020-02-10 06:00:00 6 0 Calma 6 Nordeste 0 995.9 -0.7 83
2020-02-10 05:00:00 6.6 0 Calma 3 Norte 0 995.9 -1 83
2020-02-10 04:00:00 6.8 0 Calma 5 Nordeste 0 996.3 -0.8 83
2020-02-10 03:00:00 7 0 Calma 4 Sudoeste 0 996.6 -0.7 82
2020-02-10 02:00:00 7.5 2 Nordeste 6 Este 0 996.9 -0.4 81
2020-02-10 01:00:00 8.8 0 Calma 4 Sudoeste 0 997.1 0 77
2020-02-10 00:00:00 9 0 Calma 3 Oeste 0 997.3 0.7 75
2020-02-09 23:00:00 9.3 3 Noroeste 5 Noroeste 0 997.3 1 73
2020-02-09 22:00:00 10 2 Noroeste 9 Oeste 0 997.1 1.6 70
2020-02-09 21:00:00 10.7 0 Calma 7 Nordeste 0 996.6 1.8 68
2020-02-09 20:00:00 12.3 3 Nordeste 6 Nordeste 0 996.3 1.9 59
2020-02-09 19:00:00 13.3 0 Calma 8 Sudoeste 0 995.5 1.5 53
2020-02-09 18:00:00 14.9 5 Sudoeste 16 Sudoeste 0 994.8 0.7 46
2020-02-09 17:00:00 16.1 9 Sudoeste 23 Sudoeste 0 994.4 -0.2 44
2020-02-09 16:00:00 16.5 10 Sudoeste 22 Sur 0 994 -2 40
2020-02-09 15:00:00 16.7 13 Sur 24 Sur 0 994.1 -1.8 37
2020-02-09 14:00:00 16.8 13 Sudoeste 22 Sudoeste 0 994.6 -0.7 35
2020-02-09 13:00:00 17.4 11 Sur 18 Sudoeste 0 996 1.3 34
2020-02-09 12:00:00 17.1 6 Este 12 Este 0 995.9 1.9 38
2020-02-09 11:00:00 14.6 3 Sur 6 Sur 0 995.3 1.8 43
2020-02-09 10:00:00 14.6 0 Calma 10 Este 0 994.7 1.6 49
2020-02-09 09:00:00 8 3 Este 7 Este 0 994 1.5 72
2020-02-09 08:00:00 8.5 0 Calma 8 Sudoeste 0 993.5 1.6 75
2020-02-09 07:00:00 8.5 0 Calma 4 Nordeste 0 993.1 1.2 78
2020-02-09 06:00:00 8.9 0 Calma 6 Sur 0 992.5 0.7 77
2020-02-09 05:00:00 9.8 3 Este 7 Sudeste 0 991.9 -0.2 72
2020-02-09 04:00:00 10.1 2 Sudeste 8 Sur 0 991.9 -0.2 72
2020-02-09 03:00:00 9.7 3 Sudeste 7 Sudoeste 0 991.8 -0.3 75
2020-02-09 02:00:00 9.8 0 Calma 8 Sudoeste 0 992.1 0.1 77
2020-02-09 01:00:00 10.1 2 Sur 7 Sudoeste 0 992.1 0.5 80
2020-02-09 00:00:00 10.5 4 Este 8 Nordeste 0 992.1 1 78
2020-02-08 23:00:00 10.9 0 Calma 6 Este 0 992 1.2 80
2020-02-08 22:00:00 11.3 0 Calma 8 Este 0 991.6 1.7 80
2020-02-08 21:00:00 11.7 0 Calma 7 Este 0 991.1 2 78
2020-02-08 20:00:00 12.2 2 Este 9 Este 0 990.8 2.2 77
2020-02-08 19:00:00 13.1 6 Nordeste 11 Nordeste 0 989.9 1.7 75
2020-02-08 18:00:00 14.5 4 Sur 11 Sudoeste 0 989.1 0.3 71
2020-02-08 17:00:00 16.1 6 Este 19 Este 0 988.6 -0.7 47
2020-02-08 16:00:00 19.6 9 Oeste 34 Noroeste 0 988.2 -2 25
2020-02-08 15:00:00 16.6 5 Sur 20 Sudoeste 0 988.8 -2 40
2020-02-08 14:00:00 16.3 9 Sur 19 Sur 0 989.3 -0.9 40
2020-02-08 13:00:00 16.2 8 Sudoeste 17 Sudoeste 0 990.2 0.1 37
2020-02-08 12:00:00 16.1 5 Sudoeste 9 Sur 0 990.8 0.9 38
2020-02-08 11:00:00 16.1 0 Calma 4 Sudeste 0 990.2 0.6 43
2020-02-08 10:00:00 10.2 0 Calma 3 Nordeste 0 990.1 1 81
2020-02-08 09:00:00 7.5 2 Este 6 Este 0 989.9 1.1 83
2020-02-08 08:00:00 6.7 0 Calma 7 Oeste 0 989.6 1 84
2020-02-08 07:00:00 6.7 0 Calma 6 Sudoeste 0 989.1 0.5 84
2020-02-08 06:00:00 6.5 0 Calma 4 Norte 0 988.8 0.1 84
2020-02-08 05:00:00 6.5 0 Calma 5 Nordeste 0 988.6 -0.4 85
2020-02-08 04:00:00 6.7 0 Calma 11 Este 0 988.6 -1 85
2020-02-08 03:00:00 7.5 3 Este 9 Sudeste 0 988.7 -1.1 84
2020-02-08 02:00:00 8.9 2 Sur 5 Sudoeste 0 989 -1 85
2020-02-08 01:00:00 9.9 3 Sudoeste 6 Sudoeste 0 989.6 -0.3 82
2020-02-08 00:00:00 10.1 0 Calma 6 Sudoeste 0 989.8 0.1 82
2020-02-07 23:00:00 10.5 2 Oeste 5 Noroeste 0 990 0.7 80
2020-02-07 22:00:00 10.7 3 Oeste 5 Oeste 0 989.9 1.5 80
2020-02-07 21:00:00 10.5 2 Este 9 Nordeste 0 989.7 1.7 80
2020-02-07 20:00:00 10.7 5 Sudoeste 8 Sudoeste 0 989.3 1.8 78
2020-02-07 19:00:00 11.1 3 Oeste 14 Sudoeste 0 988.4 0.9 77
2020-02-07 18:00:00 11.5 9 Sur 20 Sudoeste 0 988 0.7 72
2020-02-07 17:00:00 12.7 12 Sudoeste 21 Sudoeste 0 987.5 -0.7 61
2020-02-07 16:00:00 14.1 11 Sudoeste 19 Sudoeste 0 987.5 -1.9 51
2020-02-07 15:00:00 14.4 5 Sur 12 Sudoeste 0 987.3 -2.6 45
2020-02-07 14:00:00 14.2 8 Oeste 23 Sudoeste 0 988.2 -2 48
2020-02-07 13:00:00 13.4 2 Noroeste 15 Oeste 0 989.4 -0.7 50
2020-02-07 12:00:00 12.5 5 Oeste 12 Sudoeste 0 989.9 0.6 53
2020-02-07 11:00:00 13.9 0 Calma 6 Este 0 990.2 1.3 50
2020-02-07 10:00:00 9.7 3 Este 9 Este 0 990.1 1.5 67
2020-02-07 09:00:00 8.1 2 Este 9 Este 0 989.3 0.6 77
2020-02-07 08:00:00 7.6 0 Calma 8 Este 0 988.9 0 79
2020-02-07 07:00:00 7.9 3 Este 7 Este 0 988.6 -0.4 79
2020-02-07 06:00:00 8.3 3 Este 6 Este 0 988.7 -0.7 77
2020-02-07 05:00:00 9.2 3 Este 9 Este 0 988.9 -1 75
2020-02-07 04:00:00 9.5 3 Este 10 Este 0 989 -1.2 75
2020-02-07 03:00:00 9.3 4 Este 10 Este 0 989.4 -0.7 77
2020-02-07 02:00:00 9.4 4 Este 13 Este 0 989.9 -0.3 79
2020-02-07 01:00:00 9.4 2 Este 10 Este 0 990.2 0.2 80
2020-02-07 00:00:00 9.4 3 Este 10 Sudeste 0 990.1 0 78
2020-02-06 23:00:00 9.2 2 Este 5 Sudeste 0 990.2 0.3 78
2020-02-06 22:00:00 9.1 0 Calma 3 Este 0 990 0.7 78
2020-02-06 21:00:00 9.7 2 Nordeste 7 Nordeste 0 990.1 0.8 75
2020-02-06 20:00:00 9.7 3 Nordeste 6 Noroeste 0 989.9 0.7 72
2020-02-06 19:00:00 10.7 3 Sudoeste 12 Este 0 989.3 -0.2 68
2020-02-06 18:00:00 11.7 6 Este 12 Este 0 989.3 -0.8 59
2020-02-06 17:00:00 12.4 4 Este 13 Este 0 989.2 -2 50
2020-02-06 16:00:00 12.5 4 Este 15 Sudeste 0 989.5 -2.5 51
2020-02-06 15:00:00 12 7 Este 14 Este 0 990.1 -2.7 53
2020-02-06 14:00:00 12.2 6 Este 15 Sudeste 0 991.2 -1.7 50
2020-02-06 13:00:00 12.1 7 Este 18 Este 0 992 -0.5 46
2020-02-06 12:00:00 11.3 6 Este 16 Sudeste 0 992.8 0.9 54
2020-02-06 11:00:00 11 4 Sudeste 10 Sudeste 0 992.9 1.2 66
2020-02-06 10:00:00 10.1 4 Este 11 Sudeste 0 992.5 1 75
2020-02-06 09:00:00 9.5 4 Este 9 Nordeste 0 991.9 0.6 81
2020-02-06 08:00:00 8.9 3 Este 13 Este 0 991.7 0.4 81
2020-02-06 07:00:00 9.1 4 Sudeste 8 Este 0 991.5 0.1 81
2020-02-06 06:00:00 9.4 4 Este 10 Nordeste 0 991.3 -0.4 81
2020-02-06 05:00:00 9.4 3 Este 7 Este 0 991.3 -0.8 81
2020-02-06 04:00:00 9.4 2 Este 12 Este 0 991.4 -1.2 82
2020-02-06 03:00:00 8.9 4 Este 9 Este 0 991.7 -1 83
2020-02-06 02:00:00 9 2 Este 8 Este 0 992.1 -0.2 82
2020-02-06 01:00:00 9.9 3 Este 6 Este 0 992.6 0 81
2020-02-06 00:00:00 10.5 0 Calma 5 Sudeste 0 992.7 0.2 78
2020-02-05 23:00:00 10.4 3 Sudeste 8 Sudeste 0 992.3 -0.4 78
2020-02-05 22:00:00 10.6 2 Este 6 Este 0 992.6 0 78
2020-02-05 21:00:00 10.9 0 Calma 6 Este 0 992.5 0.3 78
2020-02-05 20:00:00 11 2 Sudeste 13 Sur 0 992.7 0.5 73
2020-02-05 19:00:00 11.1 3 Sudeste 14 Este 0 992.6 0.6 76
2020-02-05 18:00:00 10.9 5 Este 16 Sudeste 0 992.2 -0.2 77
2020-02-05 17:00:00 11.4 7 Sudeste 19 Este 0 992.2 -0.8 75
2020-02-05 16:00:00 11.8 4 Este 17 Este 0 992 -1.7 81
2020-02-05 15:00:00 11.6 9 Este 19 Este 0 992.4 -1.9 82
2020-02-05 14:00:00 11.4 9 Este 22 Este 0 993 -1 83
2020-02-05 13:00:00 12 4 Sudeste 17 Este 0 993.7 -0.3 82
2020-02-05 12:00:00 11.7 5 Sudeste 12 Sudeste 0 994.3 0.7 83
2020-02-05 11:00:00 10.9 4 Este 17 Este 0.1 994 1.3 84
2020-02-05 10:00:00 11.5 5 Este 14 Este 0 994 1.9 78
2020-02-05 09:00:00 11.1 0 Calma 12 Este 0 993.6 2 79
2020-02-05 08:00:00 10.6 8 Este 18 Sudeste 0 992.7 1.3 80
2020-02-05 07:00:00 10.9 5 Este 17 Este 0 992.1 1 77
2020-02-05 06:00:00 11.5 6 Este 18 Este 0 991.6 0.3 68
2020-02-05 05:00:00 12.5 5 Este 13 Este 0 991.4 0.8 53
2020-02-05 04:00:00 13.3 4 Sudeste 11 Sudeste 0 991.1 0.6 47
2020-02-05 03:00:00 11.8 4 Este 10 Este 0 991.3 0.5 48
2020-02-05 02:00:00 11.2 2 Sur 10 Sur 0 990.6 0.3 50
2020-02-05 01:00:00 11.6 4 Noroeste 14 Este 0 990.5 0.9 50
2020-02-05 00:00:00 13.4 2 Este 11 Noroeste 0 990.8 1.8 42
2020-02-04 23:00:00 16 7 Noroeste 10 Noroeste 0 990.3 1.6 37
2020-02-04 22:00:00 15.8 3 Norte 9 Nordeste 0 989.6 1.6 42
2020-02-04 21:00:00 15.7 4 Norte 13 Este 0 989 1.4 50
2020-02-04 20:00:00 17 0 Calma 9 Noroeste 0 988.7 0.9 41
2020-02-04 19:00:00 19.8 3 Este 11 Oeste 0 988 0.5 29
2020-02-04 18:00:00 22.8 5 Sudoeste 19 Sudoeste 0 987.6 -1 22
2020-02-04 12:00:00 22 4 Este 10 Nordeste 0 991.8 -0.1 25
2020-02-04 11:00:00 18.2 3 Este 6 Nordeste 0 992 0.5 34
2020-02-04 10:00:00 16.4 0 Calma 9 Norte 0 991.8 0.2 42
2020-02-04 09:00:00 10.7 0 Calma 8 Nordeste 0 991.9 0.3 59
2020-02-04 08:00:00 7.5 0 Calma 7 Sudoeste 0 991.5 -0.4 69
2020-02-04 07:00:00 8.2 5 Este 8 Nordeste 0 991.6 -0.4 69
2020-02-04 06:00:00 8.6 2 Este 6 Este 0 991.6 -0.9 75
2020-02-04 05:00:00 8.7 4 Este 7 Este 0 991.9 -1.1 75
2020-02-04 04:00:00 9.5 3 Este 7 Nordeste 0 992 -1.5 76
2020-02-04 03:00:00 9.2 4 Este 8 Este 0 992.5 -1 79
2020-02-04 02:00:00 10.1 0 Calma 4 Este 0 993 -0.7 74
2020-02-04 01:00:00 10.7 0 Calma 5 Nordeste 0 993.5 -0.1 75
2020-02-04 00:00:00 11.1 0 Calma 6 Noroeste 0 993.5 0.2 78
2020-02-03 23:00:00 11.6 4 Este 6 Nordeste 0 993.7 0.7 75
2020-02-03 22:00:00 13 0 Calma 4 Sudoeste 0 993.6 1.1 69
2020-02-03 21:00:00 14.3 0 Calma 5 Sudoeste 0 993.3 1.3 65
2020-02-03 20:00:00 15.5 4 Nordeste 6 Nordeste 0 993 1.3 56
2020-02-03 19:00:00 17.3 3 Nordeste 11 Este 0 992.5 0.8 47
2020-02-03 18:00:00 20.3 5 Nordeste 11 Nordeste 0 992 0.4 35
2020-02-03 17:00:00 24.7 0 Calma 17 Sudoeste 0 991.7 -0.8 28
2020-02-03 16:00:00 21.4 10 Sudoeste 21 Sur 0 991.7 -1.6 29
2020-02-03 15:00:00 22.5 10 Sudoeste 19 Sur 0 991.6 -2.3 25
2020-02-03 14:00:00 24.2 8 Sur 15 Sudoeste 0 992.5 -2 18
2020-02-03 13:00:00 27 0 Calma 5 Sur 0 993.3 -1.3 20
2020-02-03 12:00:00 23.4 0 Calma 5 Sur 0 993.9 -0.7 27
2020-02-03 11:00:00 20.8 0 Calma 5 Sudoeste 0 994.5 0.4 34
2020-02-03 10:00:00 13.6 2 Sudoeste 5 Sudoeste 0 994.6 0.8 56
2020-02-03 09:00:00 11.9 0 Calma 5 Sur 0 994.6 0.9 63
2020-02-03 08:00:00 9.8 2 Sur 6 Sur 0 994.1 0.5 75
2020-02-03 07:00:00 8.7 0 Calma 3 Oeste 0 993.8 0.1 81
2020-02-03 06:00:00 8.7 0 Calma 3 Nordeste 0 993.7 -0.4 82
2020-02-03 05:00:00 9.1 0 Calma 6 Este 0 993.6 -0.6 81
2020-02-03 04:00:00 9.4 2 Este 4 Noroeste 0 993.7 -0.7 79
2020-02-03 03:00:00 10.4 0 Calma 4 Este 0 994.1 -0.5 77
2020-02-03 02:00:00 11.1 3 Noroeste 6 Sudoeste 0 994.2 -0.1 72
2020-02-03 01:00:00 10.6 4 Oeste 8 Noroeste 0 994.4 0.3 75
2020-02-03 00:00:00 11 0 Calma 6 Nordeste 0 994.6 0.7 79
2020-02-02 23:00:00 11.7 0 Calma 6 Nordeste 0 994.3 0.7 79
2020-02-02 22:00:00 13 0 Calma 4 Noroeste 0 994.1 1.2 75
2020-02-02 21:00:00 14 0 Calma 8 Noroeste 0 993.9 1.3 71
2020-02-02 20:00:00 14.9 5 Nordeste 10 Nordeste 0 993.6 1.3 60
2020-02-02 19:00:00 16.6 3 Nordeste 11 Nordeste 0 992.9 0.6 51
2020-02-02 18:00:00 21.8 0 Calma 14 Sur 0 992.6 0.4 37
2020-02-02 17:00:00 20.2 10 Sur 17 Sudoeste 0 992.3 -0.7 38
2020-02-02 16:00:00 21.2 10 Sur 18 Sudoeste 0 992.3 -1.7 36
2020-02-02 15:00:00 22.9 9 Sudoeste 17 Sur 0 992.2 -2.5 28
2020-02-02 14:00:00 23.9 0 Calma 12 Sudoeste 0 993 -1.7 30
2020-02-02 13:00:00 21.4 3 Oeste 9 Sudoeste 0 994 -1.1 36
2020-02-02 12:00:00 19.3 2 Sudoeste 5 Sudoeste 0 994.7 0.5 42
2020-02-02 11:00:00 17.1 0 Calma 5 Este 0 994.7 1.6 48
2020-02-02 10:00:00 11.5 2 Este 5 Este 0 995.1 2.4 71
2020-02-02 09:00:00 9 0 Calma 5 Sur 0 994.2 1.5 80
2020-02-02 08:00:00 9.3 2 Sur 5 Sudoeste 0 993.1 0.4 82
2020-02-02 07:00:00 9.1 0 Calma 5 Noroeste 0 992.7 -0.3 83
2020-02-02 06:00:00 9.3 0 Calma 3 Sudoeste 0 992.7 -0.1 84
2020-02-02 05:00:00 9.4 0 Calma 9 Nordeste 0 992.7 0 84
2020-02-02 04:00:00 9.9 3 Este 6 Este 0 993 0.2 81
2020-02-02 03:00:00 10.7 0 Calma 4 Sur 0 992.8 -0.1 81
2020-02-02 02:00:00 11.1 0 Calma 4 Oeste 0 992.7 -0.1 80
2020-02-02 01:00:00 11.4 0 Calma 6 Sudoeste 0 992.8 0.2 78
2020-02-02 00:00:00 12.4 0 Calma 5 Oeste 0 992.9 0.9 75
2020-02-01 23:00:00 13.7 0 Calma 7 Noroeste 0 992.8 1.6 68
2020-02-01 22:00:00 13.6 3 Oeste 8 Oeste 0 992.6 2.3 71
2020-02-01 21:00:00 15.2 3 Noroeste 8 Oeste 0 992 2 59
2020-02-01 20:00:00 16.1 3 Oeste 28 Oeste 0 991.2 1.9 56
2020-02-01 19:00:00 17.6 18 Oeste 39 Noroeste 0 990.3 1.6 46
2020-02-01 18:00:00 19.4 22 Oeste 42 Oeste 0 990 1.7 40
2020-02-01 17:00:00 21.8 20 Oeste 37 Oeste 0 989.3 0.9 36
2020-02-01 16:00:00 23 20 Noroeste 42 Noroeste 0 988.7 -0.2 33
2020-02-01 15:00:00 22.8 21 Oeste 39 Noroeste 0 988.3 -1.2 33
2020-02-01 14:00:00 22.8 17 Noroeste 32 Noroeste 0 988.4 -1.2 33
2020-02-01 13:00:00 21.5 21 Oeste 35 Oeste 0 988.9 -0.5 37
2020-02-01 12:00:00 19.7 19 Oeste 42 Oeste 0 989.5 -0.1 43
2020-02-01 11:00:00 18.2 12 Noroeste 29 Noroeste 0 989.6 0.7 47
2020-02-01 10:00:00 17.3 15 Noroeste 31 Oeste 0 989.4 1.2 50
2020-02-01 09:00:00 12.1 3 Nordeste 8 Noroeste 0 989.6 1.6 69
2020-02-01 08:00:00 10.1 0 Calma 9 Nordeste 0 988.9 1 78
2020-02-01 07:00:00 10.5 0 Calma 9 Nordeste 0 988.2 0.2 76
2020-02-01 06:00:00 10.1 6 Este 10 Nordeste 0 988 -0.2 78
2020-02-01 05:00:00 13 5 Oeste 17 Oeste 0 987.9 -0.8 69
2020-02-01 04:00:00 13.4 8 Oeste 19 Noroeste 0 988 -1 65
2020-02-01 03:00:00 13.8 6 Oeste 18 Oeste 0 988.2 -0.6 63
2020-02-01 02:00:00 12.1 4 Oeste 7 Oeste 0 988.7 -0.2 74
2020-02-01 01:00:00 12.3 0 Calma 6 Este 0 989 0.1 75
2020-02-01 00:00:00 12.3 0 Calma 5 Oeste 0 988.8 -0.2 76
2020-01-31 23:00:00 12 0 Calma 5 Nordeste 0 988.9 0.2 76
2020-01-31 22:00:00 12.4 0 Calma 5 Este 0 988.9 0.6 75
2020-01-31 21:00:00 12.1 2 Este 6 Sudoeste 0 989 1.4 75
2020-01-31 20:00:00 13.2 2 Noroeste 7 Nordeste 0 988.7 1.3 66
2020-01-31 19:00:00 15.4 3 Nordeste 6 Nordeste 0 988.3 1.6 52
2020-01-31 18:00:00 17.1 5 Sudoeste 14 Sudoeste 0 987.6 0.8 46
2020-01-31 17:00:00 17.7 8 Sudoeste 20 Sudoeste 0 987.4 0.1 45
2020-01-31 16:00:00 17.3 12 Sudoeste 23 Sur 0 986.7 -1.5 45
2020-01-31 15:00:00 17.7 8 Sur 28 Oeste 0 986.8 -2.4 43
2020-01-31 14:00:00 20.9 12 Oeste 28 Noroeste 0 987.3 -2.4 36
2020-01-31 13:00:00 21.7 3 Este 11 Este 0 988.2 -1.4 38
2020-01-31 12:00:00 19.5 4 Este 19 Noroeste 0 989.2 0 42
2020-01-31 11:00:00 16.8 5 Sur 11 Sudoeste 0 989.7 0.6 47
2020-01-31 10:00:00 15 3 Sudoeste 12 Sur 0 989.6 1.2 53
2020-01-31 09:00:00 13 3 Sur 11 Oeste 0 989.2 0.7 59
2020-01-31 08:00:00 11.7 8 Oeste 25 Noroeste 0 989.1 0.7 62
2020-01-31 07:00:00 12 12 Oeste 22 Sudoeste 0 988.4 -0.3 56
2020-01-31 06:00:00 12.8 4 Sudoeste 23 Oeste 0 988.5 0.1 51
2020-01-31 05:00:00 14 5 Noroeste 19 Noroeste 0 988.4 0.5 47
2020-01-31 04:00:00 14.1 9 Norte 23 Norte 0 988.7 0.1 43
2020-01-31 03:00:00 14.4 0 Calma 21 Oeste 0 988.4 0.2 41
2020-01-31 02:00:00 14.1 12 Oeste 35 Oeste 0 987.9 -0.1 38
2020-01-31 01:00:00 14.6 10 Oeste 36 Noroeste 0 988.6 0.6 34
2020-01-31 00:00:00 15.8 7 Noroeste 30 Noroeste 0 988.2 0.4 27
2020-01-30 23:00:00 16.6 6 Noroeste 46 Oeste 0 988 0.7 25
2020-01-30 22:00:00 17.4 13 Noroeste 36 Noroeste 0 988 1.1 24
2020-01-30 21:00:00 17.1 14 Oeste 30 Oeste 0 987.8 1.3 25
2020-01-30 20:00:00 17.1 12 Oeste 25 Oeste 0 987.3 1 25
2020-01-30 19:00:00 18.1 12 Noroeste 23 Noroeste 0 986.9 0.5 22
2020-01-30 18:00:00 19.8 12 Norte 26 Norte 0 986.5 0.4 18
2020-01-30 17:00:00 20.8 15 Oeste 28 Oeste 0 986.3 -0.8 16
2020-01-30 16:00:00 19.8 8 Sur 21 Sudoeste 0 986.4 -2 34
2020-01-30 15:00:00 20.9 9 Sudoeste 18 Sudoeste 0 986.1 -2.8 27
2020-01-30 14:00:00 20.4 9 Sudoeste 15 Sudoeste 0 987.1 -2 24
2020-01-30 13:00:00 19.9 6 Sudoeste 12 Sudoeste 0 988.4 -1.3 25
2020-01-30 12:00:00 19.7 2 Sudeste 5 Sudeste 0 988.9 0.7 30
2020-01-30 11:00:00 16.3 2 Este 5 Este 0 989.1 0.8 40
2020-01-30 10:00:00 11.5 2 Este 4 Noroeste 0 989.7 1.8 56
2020-01-30 09:00:00 8.1 0 Calma 7 Este 0 988.2 0.3 78
2020-01-30 08:00:00 6.9 3 Este 6 Noroeste 0 988.3 0.4 78
2020-01-30 07:00:00 7 0 Calma 8 Nordeste 0 987.9 -0.5 81
2020-01-30 06:00:00 7.2 3 Este 6 Este 0 987.9 -0.7 82
2020-01-30 05:00:00 7.9 0 Calma 7 Norte 0 987.9 -1.2 80
2020-01-30 04:00:00 7.9 3 Norte 6 Nordeste 0 988.4 -1 82
2020-01-30 03:00:00 8.6 0 Calma 6 Nordeste 0 988.6 -0.9 80
2020-01-30 02:00:00 9.2 2 Norte 7 Noroeste 0 989.1 -0.4 79
2020-01-30 01:00:00 9.8 3 Nordeste 9 Nordeste 0 989.4 0 79
2020-01-30 00:00:00 10.4 0 Calma 8 Este 0 989.5 0.2 77
2020-01-29 23:00:00 10.3 0 Calma 9 Nordeste 0 989.5 0.5 79
2020-01-29 22:00:00 11.6 0 Calma 5 Sudeste 0 989.4 1 73
2020-01-29 21:00:00 12.6 2 Noroeste 5 Noroeste 0 989.3 1.4 66
2020-01-29 20:00:00 13.3 0 Calma 6 Nordeste 0 989 1.5 59
2020-01-29 19:00:00 14.3 0 Calma 5 Sudoeste 0 988.4 1.2 50
2020-01-29 18:00:00 14.4 5 Sudoeste 18 Sur 0 987.9 0.5 52
2020-01-29 17:00:00 15.1 11 Sur 21 Sudoeste 0 987.5 -0.4 49
2020-01-29 16:00:00 18.6 4 Sur 13 Este 0 987.2 -1.8 34
2020-01-29 15:00:00 18.7 6 Este 14 Este 0 987.4 -2.4 34
2020-01-29 14:00:00 21.5 0 Calma 7 Sudeste 0 987.9 -2.3 31
2020-01-29 13:00:00 17.9 0 Calma 6 Noroeste 0 989 -0.9 39
2020-01-29 12:00:00 16.8 0 Calma 5 Sudoeste 0 989.8 0.9 41
2020-01-29 11:00:00 13.7 0 Calma 5 Nordeste 0 990.2 1.6 56
2020-01-29 10:00:00 8.6 0 Calma 9 Sudoeste 0 989.9 1.7 75
2020-01-29 09:00:00 7.8 0 Calma 12 Este 0 988.9 1.1 78
2020-01-29 08:00:00 7.1 0 Calma 8 Nordeste 0 988.6 0.5 80
2020-01-29 07:00:00 7.2 2 Este 7 Nordeste 0 988.2 -0.4 80
2020-01-29 06:00:00 8.3 0 Calma 12 Oeste 0 987.8 -0.9 75
2020-01-29 05:00:00 9.8 4 Sur 9 Sur 0 988.1 -0.6 72
2020-01-29 04:00:00 10.4 4 Sur 13 Sur 0 988.6 -0.4 68
2020-01-29 03:00:00 11.6 4 Sudoeste 11 Sudoeste 0 988.7 -0.4 63
2020-01-29 02:00:00 12 8 Oeste 18 Oeste 0 988.7 -0.6 60
2020-01-29 01:00:00 12 4 Sur 20 Noroeste 0 989 -0.4 63
2020-01-29 00:00:00 13.4 12 Noroeste 31 Oeste 0 989.1 0.1 56
2020-01-28 23:00:00 12.5 6 Noroeste 15 Oeste 0 989.3 0.8 63
2020-01-28 22:00:00 13.4 3 Oeste 14 Noroeste 0 989.4 1.3 58
2020-01-28 21:00:00 14.3 8 Noroeste 15 Oeste 0 989 1.2 55
2020-01-28 20:00:00 13.9 4 Oeste 12 Oeste 0 988.5 1.1 58
2020-01-28 19:00:00 14.2 4 Noroeste 8 Noroeste 0 988.1 1 53
2020-01-28 18:00:00 15.7 4 Sur 9 Sudoeste 0 987.8 0.7 45
2020-01-28 17:00:00 17.7 5 Sudoeste 12 Sudoeste 0 987.4 -0.3 39
2020-01-28 16:00:00 17.3 8 Sudoeste 17 Sudoeste 0 987.1 -1.5 37
2020-01-28 15:00:00 17.2 10 Sudoeste 17 Sudoeste 0 987.1 -2 37
2020-01-28 14:00:00 17.2 9 Sur 24 Sudoeste 0 987.7 -1.7 37
2020-01-28 13:00:00 17.5 17 Sudoeste 28 Sudoeste 0 988.6 -0.9 38
2020-01-28 12:00:00 16.8 14 Oeste 26 Oeste 0 989.1 0.2 41
2020-01-28 11:00:00 14.8 13 Oeste 30 Sudoeste 0 989.4 0.6 45
2020-01-28 10:00:00 12.8 10 Oeste 27 Oeste 0 989.5 0.7 50
2020-01-28 09:00:00 10.8 10 Oeste 16 Noroeste 0 988.9 0.6 60
2020-01-28 08:00:00 9.8 4 Sudoeste 15 Oeste 0 988.8 0.5 61
2020-01-28 07:00:00 10.3 11 Oeste 17 Oeste 0 988.8 0.5 56
2020-01-28 06:00:00 10.2 8 Oeste 26 Noroeste 0 988.3 -0.2 56
2020-01-28 05:00:00 10.4 14 Noroeste 27 Oeste 0 988.3 -0.4 51
2020-01-28 04:00:00 10.4 7 Oeste 18 Oeste 0 988.3 -0.4 48
2020-01-28 03:00:00 10.1 8 Sudoeste 16 Oeste 0 988.5 -0.2 48
2020-01-28 02:00:00 10.3 6 Noroeste 15 Noroeste 0 988.7 -0.2 47
2020-01-28 01:00:00 9.5 6 Oeste 12 Sur 0 988.7 -0.1 51
2020-01-28 00:00:00 9.9 6 Oeste 13 Oeste 0 988.7 0.1 51
2020-01-27 23:00:00 10 2 Norte 11 Oeste 0 988.9 0.5 52
2020-01-27 22:00:00 10.5 3 Sur 12 Sur 0 988.8 0.9 51
2020-01-27 21:00:00 10.6 5 Oeste 10 Oeste 0 988.6 1.3 55
2020-01-27 20:00:00 10.1 0 Calma 10 Este 0 988.4 1.5 79
2020-01-27 19:00:00 11.1 5 Nordeste 10 Norte 0 987.9 0.9 75
2020-01-27 18:00:00 13.4 4 Sudeste 13 Sur 0 987.3 -0.4 55
2020-01-27 17:00:00 14.6 8 Sudoeste 17 Sur 0 986.9 -1.5 52
2020-01-27 16:00:00 15.2 8 Sur 17 Sudoeste 0 987 -2.9 44
2020-01-27 15:00:00 15.6 8 Sur 18 Sur 0 987.7 -3 35
2020-01-27 14:00:00 15.1 8 Sur 21 Sudoeste 0 988.4 -2.7 31
2020-01-27 13:00:00 14.3 10 Oeste 22 Oeste 0 989.9 -1 29
2020-01-27 12:00:00 13.3 4 Sudeste 8 Sudeste 0 990.7 0.7 37
2020-01-27 11:00:00 11.1 2 Sudeste 5 Sur 0 991.1 1.6 44
2020-01-27 10:00:00 9.2 0 Calma 4 Nordeste 0 990.9 1.7 59
2020-01-27 09:00:00 3.8 2 Este 5 Nordeste 0 990 1.3 80
2020-01-27 08:00:00 2.5 0 Calma 5 Nordeste 0 989.5 0.1 81
2020-01-27 07:00:00 2.7 3 Este 5 Nordeste 0 989.2 -0.5 81
2020-01-27 06:00:00 3.4 2 Este 5 Este 0 988.7 -1.4 79
2020-01-27 05:00:00 4.2 0 Calma 6 Sudoeste 0 989.4 -0.9 77
2020-01-27 04:00:00 5.3 0 Calma 5 Este 0 989.7 -0.8 72
2020-01-27 03:00:00 6 0 Calma 6 Sudeste 0 990.1 -0.5 67
2020-01-27 02:00:00 7 0 Calma 5 Oeste 0 990.3 0.1 60
2020-01-27 01:00:00 7.6 3 Sudoeste 12 Noroeste 0 990.5 0.1 59
2020-01-27 00:00:00 7.6 3 Sur 13 Oeste 0 990.6 0.8 56
2020-01-26 23:00:00 8.2 9 Oeste 18 Sudoeste 0 990.2 1.2 52
2020-01-26 22:00:00 9.1 3 Sudoeste 14 Oeste 0 990.4 2.1 48
2020-01-26 21:00:00 10 4 Sur 10 Sur 0 989.8 2.3 46
2020-01-26 20:00:00 10.3 3 Oeste 19 Norte 0 989 1.4 44
2020-01-26 19:00:00 11.8 7 Noroeste 31 Noroeste 0 988.3 1.3 35
2020-01-26 18:00:00 13.8 15 Noroeste 30 Noroeste 0 987.5 0.3 31
2020-01-26 17:00:00 15.1 13 Noroeste 33 Noroeste 0 987.6 0.1 28
2020-01-26 16:00:00 15.2 17 Noroeste 42 Noroeste 0 987 -0.9 28
2020-01-26 15:00:00 15.5 17 Noroeste 38 Noroeste 0 987.2 -1.1 28
2020-01-26 14:00:00 15.7 16 Noroeste 69 Noroeste 0 987.5 -0.8 30
2020-01-26 13:00:00 14.9 15 Noroeste 35 Oeste 0 987.9 0.2 33
2020-01-26 12:00:00 14 22 Oeste 36 Noroeste 0 988.3 1.9 38
2020-01-26 11:00:00 12.6 16 Noroeste 35 Noroeste 0 988.3 2.8 43
2020-01-26 10:00:00 10 6 Oeste 13 Oeste 0 987.7 2.9 64
2020-01-26 09:00:00 7.7 0 Calma 8 Este 0 986.4 2 81
2020-01-26 08:00:00 5.4 3 Este 12 Sudeste 0 985.5 1.3 84
2020-01-26 07:00:00 4.9 2 Este 10 Oeste 0 984.8 0.6 84
2020-01-26 06:00:00 5.6 0 Calma 8 Sudeste 0 984.4 0.4 84
2020-01-26 05:00:00 5.6 3 Este 6 Noroeste 0 984.2 0.1 84
2020-01-26 04:00:00 6 3 Oeste 6 Oeste 0 984.2 -0.1 84
2020-01-26 03:00:00 6.5 0 Calma 6 Nordeste 0 984 -0.3 84
2020-01-26 02:00:00 6.6 0 Calma 4 Norte 0 984.1 0.1 84
2020-01-26 01:00:00 6.9 0 Calma 4 Oeste 0 984.3 0.5 84
2020-01-26 00:00:00 7.5 0 Calma 4 Noroeste 0 984.3 0.7 84
2020-01-25 23:00:00 7.8 2 Noroeste 7 Norte 0 984 0.6 84
2020-01-25 22:00:00 8.1 0 Calma 9 Este 0 983.8 1 83
2020-01-25 21:00:00 8.8 2 Nordeste 5 Este 0 983.6 1.4 83
2020-01-25 20:00:00 9.2 0 Calma 6 Nordeste 0 983.4 0.9 83
2020-01-25 19:00:00 9.7 0 Calma 5 Nordeste 0 982.8 0.4 82
2020-01-25 18:00:00 10.4 2 Este 8 Sudeste 0 982.2 -1.2 78
2020-01-25 17:00:00 10.3 4 Sudeste 8 Sur 0.2 982.5 -0.5 81
2020-01-25 16:00:00 10.8 3 Norte 10 Oeste 0 982.4 -2.5 75
2020-01-25 15:00:00 11.1 9 Oeste 13 Sudoeste 0 983.4 -1.2 74
2020-01-25 14:00:00 11.4 2 Este 11 Sudeste 0.3 983 -1.5 78
2020-01-25 13:00:00 10.6 9 Sudoeste 13 Sudoeste 0.1 984.9 1.2 72
2020-01-25 12:00:00 12.4 0 Calma 6 Sudoeste 0 984.6 1.4 69
2020-01-25 11:00:00 9.6 2 Oeste 6 Noroeste 0 984.5 1.2 78
2020-01-25 10:00:00 8.3 4 Oeste 6 Oeste 0 983.7 0.4 79
2020-01-25 09:00:00 8 3 Noroeste 8 Noroeste 0 983.2 0 81
2020-01-25 08:00:00 6.7 5 Noroeste 9 Noroeste 0 983.3 0 83
2020-01-25 07:00:00 6.9 0 Calma 8 Norte 0 983.3 -0.3 83
2020-01-25 06:00:00 7.3 3 Norte 8 Sudoeste 0 983.2 -0.8 83
2020-01-25 05:00:00 7.9 2 Nordeste 9 Nordeste 0 983.3 -1.1 83
2020-01-25 04:00:00 8.4 4 Nordeste 9 Este 0 983.6 -1.3 83
2020-01-25 03:00:00 8.1 0 Calma 7 Nordeste 0 984 -1 83
2020-01-25 02:00:00 8.8 3 Nordeste 10 Este 0 984.4 -0.8 83
2020-01-25 01:00:00 8.9 0 Calma 6 Noroeste 0 984.9 -0.7 83
2020-01-25 00:00:00 9.2 3 Nordeste 10 Este 0 985 -0.5 83
2020-01-24 23:00:00 9.5 3 Este 7 Este 0 985.2 0 83
2020-01-24 22:00:00 9.8 2 Nordeste 4 Este 0 985.6 0.9 83
2020-01-24 21:00:00 9.8 3 Nordeste 6 Nordeste 0 985.5 0.9 83
2020-01-24 20:00:00 10.3 0 Calma 10 Sur 0 985.2 0.6 83
2020-01-24 19:00:00 10.7 5 Sur 12 Sur 0 984.7 0.2 82
2020-01-24 18:00:00 11.3 6 Sur 10 Sur 0 984.6 -0.2 80
2020-01-24 17:00:00 12.2 3 Sudeste 11 Sudeste 0 984.6 -1.1 72
2020-01-24 16:00:00 12.2 6 Este 15 Sur 0 984.5 -1.8 72
2020-01-24 15:00:00 12.7 4 Sudeste 10 Sudeste 0 984.8 -2.3 66
2020-01-24 14:00:00 13 6 Sudeste 14 Este 0 985.7 -1.2 61
2020-01-24 13:00:00 13.6 2 Norte 9 Noroeste 0 986.3 0 59
2020-01-24 12:00:00 11.8 5 Noroeste 9 Noroeste 0 987.1 1.3 65
2020-01-24 11:00:00 10 3 Noroeste 7 Oeste 0 986.9 1.3 77
2020-01-24 10:00:00 9 2 Noroeste 8 Noroeste 0 986.3 1.5 75
2020-01-24 09:00:00 7.7 0 Calma 8 Nordeste 0 985.8 1.1 80
2020-01-24 08:00:00 7.7 3 Noroeste 9 Noroeste 0 985.6 1 79
2020-01-24 07:00:00 6.6 0 Calma 5 Oeste 0 984.8 -0.2 81
2020-01-24 06:00:00 7 5 Noroeste 7 Norte 0 984.7 -0.6 80
2020-01-24 05:00:00 7 3 Noroeste 9 Noroeste 0 984.6 -0.8 80
2020-01-24 04:00:00 6.4 7 Noroeste 11 Noroeste 0 985 -0.6 82
2020-01-24 03:00:00 6 6 Noroeste 10 Noroeste 0 985.3 -0.5 82
2020-01-24 02:00:00 6.8 6 Noroeste 11 Oeste 0 985.4 -0.3 83
2020-01-24 01:00:00 6.1 4 Noroeste 9 Noroeste 0 985.6 0.2 83
2020-01-24 00:00:00 7.8 0 Calma 9 Noroeste 0 985.8 0.6 83
2020-01-23 23:00:00 8.1 0 Calma 7 Nordeste 0 985.7 0.8 83
2020-01-23 22:00:00 8.4 0 Calma 6 Este 0 985.4 1 83
2020-01-23 21:00:00 9.8 0 Calma 5 Nordeste 0 985.2 1.1 82
2020-01-23 20:00:00 9.8 4 Nordeste 9 Nordeste 0 984.9 1.1 82
2020-01-23 19:00:00 10.2 0 Calma 7 Sur 0 984.4 0.7 75
2020-01-23 18:00:00 11.7 4 Sur 12 Sur 0 984.1 0.6 68
2020-01-23 17:00:00 12.8 5 Este 13 Este 0 983.8 -0.8 57
2020-01-23 16:00:00 14.5 6 Este 15 Este 0 983.7 -1.8 54
2020-01-23 15:00:00 15 5 Este 12 Este 0 983.5 -2.8 53
2020-01-23 14:00:00 12.7 6 Este 12 Este 0 984.6 -1.2 57
2020-01-23 13:00:00 12.3 4 Este 15 Este 0 985.5 0.1 66
2020-01-23 12:00:00 10.9 8 Este 14 Sudeste 0 986.3 2.3 70
2020-01-23 11:00:00 10.1 3 Este 9 Nordeste 0 985.8 2.3 81
2020-01-23 10:00:00 7.2 0 Calma 6 Nordeste 0 985.4 2.2 84
2020-01-23 09:00:00 5.8 0 Calma 5 Nordeste 0 984 1.1 84
2020-01-23 08:00:00 6.1 0 Calma 5 Nordeste 0 983.5 0.3 84
2020-01-23 07:00:00 6.5 3 Norte 7 Norte 0 983.2 -0.2 84
2020-01-23 06:00:00 6.5 0 Calma 5 Oeste 0 982.9 -0.6 84
2020-01-23 05:00:00 5.9 0 Calma 10 Este 0 983.2 -0.2 84
2020-01-23 04:00:00 6.6 3 Este 8 Este 0 983.4 0 84
2020-01-23 03:00:00 6.6 3 Noroeste 8 Este 0 983.5 0.3 84
2020-01-23 02:00:00 7 3 Norte 7 Noroeste 0 983.4 0.4 84
2020-01-23 01:00:00 6.6 0 Calma 6 Noroeste 0 983.4 0.8 84
2020-01-23 00:00:00 6.3 0 Calma 14 Sur 1.2 983.2 0.8 84
2020-01-22 23:00:00 6.5 0 Calma 4 Noroeste 0 983 0.8 82
2020-01-22 22:00:00 6.3 0 Calma -- -- 0 982.6 0.9 81
2020-01-22 21:00:00 6.9 0 Calma 5 Nordeste 0 982.4 1.1 81
2020-01-22 20:00:00 7.6 0 Calma 6 Oeste 0 982.2 1.2 78
2020-01-22 19:00:00 8.6 5 Oeste 8 Noroeste 0 981.7 0.7 75
2020-01-22 18:00:00 9.9 3 Noroeste 11 Nordeste 0 981.3 -0.1 66
2020-01-22 17:00:00 11.4 5 Este 18 Este 0 981 -0.8 53
2020-01-22 16:00:00 13 2 Este 9 Sudoeste 0 981 -1.9 51
2020-01-22 15:00:00 10.9 3 Sur 14 Norte 0.1 981.4 -2.2 69
2020-01-22 14:00:00 7.5 2 Este 28 Norte 1.9 981.8 -1.3 83
2020-01-22 13:00:00 6.5 16 Noroeste 25 Noroeste 9.1 982.9 0.5 84
2020-01-22 12:00:00 6.5 14 Oeste 25 Noroeste 4.5 983.6 2 83
2020-01-22 11:00:00 6.8 8 Oeste 23 Oeste 3.3 983.1 1 83
2020-01-22 10:00:00 8.1 5 Este 28 Este 1 982.4 1 84
2020-01-22 09:00:00 8 11 Nordeste 31 Nordeste 0 981.6 0.6 84
2020-01-22 08:00:00 7.5 6 Este 14 Este 0 982.1 0.9 84
2020-01-22 07:00:00 6.8 3 Nordeste 8 Norte 0 981.4 -0.3 84
2020-01-22 06:00:00 6.3 4 Nordeste 9 Nordeste 0 981 -0.8 84
2020-01-22 05:00:00 6.4 5 Nordeste 10 Nordeste 0 981.2 -0.4 84
2020-01-22 04:00:00 6.6 5 Nordeste 11 Nordeste 0 981.7 0.5 84
2020-01-22 03:00:00 7 4 Nordeste 6 Nordeste 0 981.8 0.6 84
2020-01-22 02:00:00 6.6 3 Norte 6 Norte 0 981.6 0.7 84
2020-01-22 01:00:00 6.6 3 Este 12 Nordeste 0 981.2 0.7 84
2020-01-22 00:00:00 6.9 5 Este 12 Este 0 981.2 1.3 84